Ardonia, NY

10:17 AM EST on March 05, 2015 (GMT -0500)
Orange County | Change Station
CLOSE
Current Station
Airport
Location: Montgomery,
Elevation: 364 ft
Nearby Weather Stations
Active Advisory: Special Statement

Elev 364 ft 41.51 °N, 74.26 °W | Updated 23 minutes ago

Overcast
Overcast
25 °F
Feels Like 16 °F
N
9
Wind Variable Wind from NW

Today
High -- | Low -- °F
--% Chance of Precip.
Yesterday
High -- | Low -- °F
Precip. -- in
6:25 AM 5:51 PM
Full, 100% visible
Pressure 30.14 in
Visibility 10.0 miles
Clouds Overcast 6500 ft
Windchill 16 °F
Dew Point 7 °F
Humidity 46%
Rainfall 0.02 in
Snow Depth Not available.
UV 1 out of 12
Pollen .50 out of 12
Air Quality Not available.
Flu Activity Not available.
METAR KMGJ 051454Z AUTO 31008KT 10SM OVC065 M04/M14 A3013 RMK AO2 SLP207 60000 T10391139 51035 TSNO

More Conditions Fewer Conditions

Pressure 30.14 in
Visibility 10.0 miles
Clouds Overcast 6500 ft
Windchill 16 °F
Dew Point 7 °F
Humidity 46%
Rainfall 0.02 in
Snow Depth Not available.
UV 1 out of 12
Pollen .50 out of 12
Air Quality Not available.
Flu Activity Not available.
METAR KMGJ 051454Z AUTO 31008KT 10SM OVC065 M04/M14 A3013 RMK AO2 SLP207 60000 T10391139 51035 TSNO

More Conditions Fewer Conditions

10-Day Weather Forecast

Almanac

Astronomy

Mar. 05, 2015 Rise Set
Actual Time
Civil Twilight
Nautical Twilight
Astronomical Twilight
Moon
Length of Visible Light
Length of Day
Tomorrow will be .
, % of the Moon is Illuminated

Today's Extremes

State Highs State Lows

Community

WunderPhotos

Upload Photos

1,802,806 photos uploaded!

WunderBlogs® & News

Nearby

Air Quality

  Air Quality AQ Index Pollutant
Not available.

Snow Depth

Station Depth Elevation

Earthquake Activity

City Distance Mag. Time & Date
Minimum magnitude displayed is 2.5.

Coastal Water Temperatures

Place Temperature

Nearby Weather Stations

Special Statement
Statement as of 9:10 AM EST on March 05, 2015

... Areas of black ice into the early afternoon...

Light snow will continue to fall across eastern Ulster... Dutchess
and Litchfield counties into the early afternoon hours. In
addition to light snow... roadways remain wet from earlier
precipitation and melting yesterday from above freezing
temperatures.

As temperatures fall throughout the morning and into the early
afternoon hours... areas of black ice will be possible on untreated
roadways and surfaces resulting in hazardous travel conditions.
Motorists are urged to take caution if traveling.


Irl